createdAt,value
2016-06-29T00:00:28.319Z,21.55
2016-06-29T00:01:27.782Z,21.6
2016-06-29T00:02:28.380Z,21.52
2016-06-29T00:03:28.449Z,21.5
2016-06-29T00:04:28.427Z,21.57
2016-06-29T00:05:29.069Z,21.58
2016-06-29T00:06:28.500Z,21.48
2016-06-29T00:07:28.511Z,21.55
2016-06-29T00:08:29.150Z,21.51
2016-06-29T00:09:29.175Z,21.43
2016-06-29T00:10:28.591Z,21.51
2016-06-29T00:11:28.627Z,21.46
2016-06-29T00:12:28.644Z,21.42
2016-06-29T00:13:29.283Z,21.42
2016-06-29T00:14:29.315Z,21.43
2016-06-29T00:15:29.347Z,21.43
2016-06-29T00:16:28.746Z,21.46
2016-06-29T00:17:28.814Z,21.37
2016-06-29T00:18:29.407Z,21.48
2016-06-29T00:19:35.194Z,21.43
2016-06-29T00:20:28.873Z,21.46
2016-06-29T00:21:28.889Z,21.48
2016-06-29T00:22:28.928Z,21.39
2016-06-29T00:23:28.321Z,21.43
2016-06-29T00:24:29.625Z,21.33
2016-06-29T00:25:29.634Z,21.37
2016-06-29T00:26:28.409Z,21.43
2016-06-29T00:27:29.062Z,21.48
2016-06-29T00:28:29.073Z,21.39
2016-06-29T00:29:28.487Z,21.39
2016-06-29T00:30:29.117Z,21.43
2016-06-29T00:31:29.155Z,21.39
2016-06-29T00:32:28.565Z,21.43
2016-06-29T00:33:29.892Z,21.29
2016-06-29T00:34:29.909Z,21.35
2016-06-29T00:35:29.245Z,21.42
2016-06-29T00:36:29.325Z,21.37
2016-06-29T00:37:29.936Z,21.4
2016-06-29T00:38:29.339Z,21.43
2016-06-29T00:39:29.669Z,21.39
2016-06-29T00:40:28.795Z,21.3
2016-06-29T00:41:30.035Z,21.3
2016-06-29T00:42:29.543Z,21.36
2016-06-29T00:43:30.191Z,21.3
2016-06-29T00:44:30.127Z,21.33
2016-06-29T00:45:29.570Z,21.36
2016-06-29T00:46:30.162Z,21.4
2016-06-29T00:47:29.583Z,21.3
2016-06-29T00:48:29.741Z,21.42
2016-06-29T00:49:29.754Z,21.36
2016-06-29T00:50:30.274Z,21.33
2016-06-29T00:51:29.078Z,21.29
2016-06-29T00:52:30.316Z,21.39
2016-06-29T00:53:29.790Z,21.29
2016-06-29T00:54:30.379Z,21.35
2016-06-29T00:55:29.836Z,21.33
2016-06-29T00:56:29.907Z,21.35
2016-06-29T00:57:30.566Z,21.32
2016-06-29T00:58:29.863Z,21.32
2016-06-29T00:59:29.898Z,21.29
2016-06-29T01:00:30.603Z,21.27
2016-06-29T01:01:30.603Z,21.25
2016-06-29T01:02:29.394Z,21.35
2016-06-29T01:03:30.670Z,21.25
2016-06-29T01:04:30.033Z,21.2
2016-06-29T01:05:30.687Z,21.2
2016-06-29T01:06:30.080Z,21.27
2016-06-29T01:07:30.802Z,21.21
2016-06-29T01:08:30.848Z,21.22
2016-06-29T01:09:29.530Z,21.22
2016-06-29T01:10:30.861Z,21.27
2016-06-29T01:11:30.859Z,21.25
2016-06-29T01:12:30.244Z,21.21
2016-06-29T01:13:30.295Z,21.22
2016-06-29T01:14:29.716Z,21.21
2016-06-29T01:15:30.930Z,21.18
2016-06-29T01:16:30.467Z,21.22
2016-06-29T01:17:30.475Z,21.17
2016-06-29T01:18:30.518Z,21.11
2016-06-29T01:19:29.815Z,21.2
2016-06-29T01:20:30.518Z,21.22
2016-06-29T01:21:30.649Z,21.15
2016-06-29T01:22:29.913Z,21.22
2016-06-29T01:23:30.546Z,21.15
2016-06-29T01:24:31.184Z,21.14
2016-06-29T01:25:29.957Z,21.15
2016-06-29T01:26:31.211Z,21.15
2016-06-29T01:27:30.750Z,21.11
2016-06-29T01:28:30.749Z,21.09
2016-06-29T01:29:31.307Z,21.12
2016-06-29T01:30:31.336Z,21.09
2016-06-29T01:31:31.341Z,21.07
2016-06-29T01:32:31.385Z,21.09
2016-06-29T01:33:30.195Z,21.09
2016-06-29T01:34:30.206Z,20.99
2016-06-29T01:35:30.864Z,20.99
2016-06-29T01:36:30.241Z,21.03
2016-06-29T01:37:30.885Z,21.03
2016-06-29T01:38:31.557Z,21.02
2016-06-29T01:39:31.566Z,20.97
2016-06-29T01:40:31.590Z,21.03
2016-06-29T01:41:31.002Z,20.99
2016-06-29T01:42:31.029Z,21
2016-06-29T01:43:31.055Z,21.09
2016-06-29T01:44:31.712Z,21
2016-06-29T01:45:31.726Z,21.05
2016-06-29T01:46:31.118Z,20.99
2016-06-29T01:47:30.639Z,20.92
2016-06-29T01:48:30.667Z,21.06
2016-06-29T01:49:31.231Z,20.93
2016-06-29T01:50:31.855Z,20.92
2016-06-29T01:51:30.692Z,20.9
2016-06-29T01:52:31.902Z,20.96
2016-06-29T01:53:31.965Z,20.95
2016-06-29T01:54:31.336Z,20.93
2016-06-29T01:55:31.985Z,20.92
2016-06-29T01:56:31.385Z,20.95
2016-06-29T01:57:31.430Z,20.95
2016-06-29T01:58:32.066Z,20.96
2016-06-29T01:59:31.463Z,20.96
2016-06-29T02:00:32.120Z,20.99
2016-06-29T02:01:31.532Z,20.99
2016-06-29T02:02:31.559Z,20.95
2016-06-29T02:03:31.605Z,20.93
2016-06-29T02:04:30.997Z,20.96
2016-06-29T02:05:31.001Z,20.87
2016-06-29T02:06:31.028Z,20.96
2016-06-29T02:07:31.672Z,20.87
2016-06-29T02:08:31.695Z,20.84
2016-06-29T02:09:31.728Z,20.88
2016-06-29T02:10:32.371Z,20.85
2016-06-29T02:11:31.791Z,20.84
2016-06-29T02:12:31.825Z,20.88
2016-06-29T02:13:31.213Z,20.85
2016-06-29T02:14:32.589Z,20.84
2016-06-29T02:15:31.883Z,20.85
2016-06-29T02:16:32.614Z,20.85
2016-06-29T02:17:31.935Z,20.85
2016-06-29T02:18:32.575Z,20.87
2016-06-29T02:19:32.063Z,20.8
2016-06-29T02:20:32.149Z,20.8
2016-06-29T02:21:32.656Z,20.85
2016-06-29T02:22:32.059Z,20.77
2016-06-29T02:23:32.094Z,20.84
2016-06-29T02:24:32.794Z,20.84
2016-06-29T02:25:32.798Z,20.72
2016-06-29T02:26:32.789Z,20.77
2016-06-29T02:27:32.338Z,20.72
2016-06-29T02:28:32.930Z,20.8
2016-06-29T02:29:32.266Z,20.75
2016-06-29T02:30:32.899Z,20.74
2016-06-29T02:31:32.929Z,20.72
2016-06-29T02:32:31.717Z,20.6
2016-06-29T02:33:33.032Z,20.63
2016-06-29T02:34:33.022Z,20.62
2016-06-29T02:35:32.637Z,20.59
2016-06-29T02:36:32.432Z,20.65
2016-06-29T02:37:31.844Z,20.63
2016-06-29T02:38:32.494Z,20.63
2016-06-29T02:39:33.141Z,20.6
2016-06-29T02:40:32.551Z,20.59
2016-06-29T02:41:32.569Z,20.66
2016-06-29T02:42:33.206Z,20.59
2016-06-29T02:43:32.609Z,20.6
2016-06-29T02:44:32.639Z,20.6
2016-06-29T02:45:32.059Z,20.65
2016-06-29T02:46:32.767Z,20.62
2016-06-29T02:47:32.731Z,20.63
2016-06-29T02:48:32.119Z,20.63
2016-06-29T02:49:32.775Z,20.62
2016-06-29T02:50:32.200Z,20.62
2016-06-29T02:51:33.510Z,20.59
2016-06-29T02:52:32.844Z,20.56
2016-06-29T02:53:32.881Z,20.63
2016-06-29T02:54:33.721Z,20.52
2016-06-29T02:55:32.951Z,20.55
2016-06-29T02:56:32.947Z,20.56
2016-06-29T02:57:32.986Z,20.51
2016-06-29T02:58:32.393Z,20.52
2016-06-29T02:59:33.021Z,20.5
2016-06-29T03:00:33.056Z,20.5
2016-06-29T03:01:33.707Z,20.52
2016-06-29T03:02:33.122Z,20.55
2016-06-29T03:03:33.151Z,20.55
2016-06-29T03:04:33.775Z,20.48
2016-06-29T03:05:33.201Z,20.48
2016-06-29T03:06:33.207Z,20.5
2016-06-29T03:07:33.869Z,20.58
2016-06-29T03:08:33.893Z,20.56
2016-06-29T03:09:33.907Z,20.48
2016-06-29T03:10:33.930Z,20.55
2016-06-29T03:11:33.339Z,20.58
2016-06-29T03:12:34.006Z,20.52
2016-06-29T03:13:33.386Z,20.55
2016-06-29T03:14:32.795Z,20.55
2016-06-29T03:15:33.450Z,20.56
2016-06-29T03:16:33.472Z,20.5
2016-06-29T03:17:34.112Z,20.55
2016-06-29T03:18:34.136Z,20.56
2016-06-29T03:19:34.174Z,20.58
2016-06-29T03:20:34.181Z,20.51
2016-06-29T03:21:34.225Z,20.55
2016-06-29T03:22:34.234Z,20.52
2016-06-29T03:23:33.044Z,20.55
2016-06-29T03:24:33.051Z,20.55
2016-06-29T03:25:33.089Z,20.56
2016-06-29T03:26:34.335Z,20.48
2016-06-29T03:27:34.380Z,20.48
2016-06-29T03:28:34.378Z,20.44
2016-06-29T03:29:33.827Z,20.55
2016-06-29T03:30:33.838Z,20.41
2016-06-29T03:31:34.473Z,20.41
2016-06-29T03:32:34.496Z,20.41
2016-06-29T03:33:33.279Z,20.44
2016-06-29T03:34:33.927Z,20.5
2016-06-29T03:35:34.011Z,20.44
2016-06-29T03:36:34.607Z,20.47
2016-06-29T03:37:34.002Z,20.47
2016-06-29T03:38:34.027Z,20.44
2016-06-29T03:39:33.436Z,20.48
2016-06-29T03:40:34.740Z,20.47
2016-06-29T03:41:33.476Z,20.43
2016-06-29T03:42:33.520Z,20.41
2016-06-29T03:43:34.159Z,20.47
2016-06-29T03:44:34.815Z,20.51
2016-06-29T03:45:34.198Z,20.44
2016-06-29T03:46:34.242Z,20.41
2016-06-29T03:47:34.259Z,20.52
2016-06-29T03:48:34.280Z,20.5
2016-06-29T03:49:33.714Z,20.44
2016-06-29T03:50:34.340Z,20.44
2016-06-29T03:51:34.976Z,20.51
2016-06-29T03:52:34.385Z,20.41
2016-06-29T03:53:34.419Z,20.44
2016-06-29T03:54:34.425Z,20.5
2016-06-29T03:55:34.452Z,20.51
2016-06-29T03:56:34.472Z,20.47
2016-06-29T03:57:35.114Z,20.4
2016-06-29T03:58:35.150Z,20.52
2016-06-29T03:59:34.579Z,20.48
2016-06-29T04:00:35.197Z,20.51
2016-06-29T04:01:34.604Z,20.48
2016-06-29T04:02:34.634Z,20.5
2016-06-29T04:03:34.665Z,20.37
2016-06-29T04:04:34.062Z,20.43
2016-06-29T04:05:34.713Z,20.41
2016-06-29T04:06:34.732Z,20.4
2016-06-29T04:07:34.759Z,20.48
2016-06-29T04:08:35.450Z,20.44
2016-06-29T04:09:35.442Z,20.44
2016-06-29T04:10:35.453Z,20.5
2016-06-29T04:11:34.863Z,20.41
2016-06-29T04:12:34.890Z,20.44
2016-06-29T04:13:34.278Z,20.44
2016-06-29T04:14:34.323Z,20.51
2016-06-29T04:15:34.946Z,20.43
2016-06-29T04:16:34.370Z,20.37
2016-06-29T04:17:35.007Z,20.43
2016-06-29T04:18:35.655Z,20.43
2016-06-29T04:19:35.059Z,20.43
2016-06-29T04:20:35.710Z,20.43
2016-06-29T04:21:35.127Z,20.43
2016-06-29T04:22:34.541Z,20.43
2016-06-29T04:23:35.755Z,20.43
2016-06-29T04:24:34.596Z,20.37
2016-06-29T04:25:35.824Z,20.43
2016-06-29T04:26:35.224Z,20.43
2016-06-29T04:27:35.903Z,20.43
2016-06-29T04:28:35.299Z,20.5
2016-06-29T04:29:35.330Z,20.39
2016-06-29T04:30:35.970Z,20.47
2016-06-29T04:31:35.968Z,20.48
2016-06-29T04:32:35.991Z,20.5
2016-06-29T04:33:35.422Z,20.47
2016-06-29T04:34:34.826Z,20.47
2016-06-29T04:35:36.082Z,20.44
2016-06-29T04:36:34.865Z,20.48
2016-06-29T04:37:35.511Z,20.48
2016-06-29T04:38:35.763Z,20.44
2016-06-29T04:39:35.562Z,20.4
2016-06-29T04:40:36.302Z,20.47
2016-06-29T04:41:36.307Z,20.47
2016-06-29T04:42:35.671Z,20.47
2016-06-29T04:43:35.660Z,20.44
2016-06-29T04:44:35.696Z,20.56
2016-06-29T04:45:35.083Z,20.56
2016-06-29T04:46:35.736Z,20.56
2016-06-29T04:47:36.626Z,20.59
2016-06-29T04:48:35.793Z,20.58
2016-06-29T04:49:36.431Z,20.62
2016-06-29T04:50:35.832Z,20.65
2016-06-29T04:51:35.862Z,20.58
2016-06-29T04:52:36.491Z,20.56
2016-06-29T04:53:35.923Z,20.6
2016-06-29T04:54:35.984Z,20.63
2016-06-29T04:55:35.614Z,20.59
2016-06-29T04:56:36.596Z,20.63
2016-06-29T04:57:36.079Z,20.67
2016-06-29T04:58:36.640Z,20.63
2016-06-29T04:59:36.049Z,20.7
2016-06-29T05:00:36.082Z,20.69
2016-06-29T05:01:36.214Z,20.72
2016-06-29T05:02:36.752Z,20.72
2016-06-29T05:03:36.797Z,20.75
2016-06-29T05:04:36.811Z,20.74
2016-06-29T05:05:36.222Z,20.74
2016-06-29T05:06:35.621Z,20.75
2016-06-29T05:07:36.887Z,20.8
2016-06-29T05:08:36.914Z,20.72
2016-06-29T05:09:35.876Z,20.82
2016-06-29T05:10:36.957Z,20.77
2016-06-29T05:11:36.366Z,20.8
2016-06-29T05:12:36.376Z,20.9
2016-06-29T05:13:36.407Z,20.81
2016-06-29T05:14:36.430Z,20.84
2016-06-29T05:15:36.455Z,20.77
2016-06-29T05:16:36.481Z,20.77
2016-06-29T05:17:36.523Z,20.81
2016-06-29T05:18:37.178Z,20.85
2016-06-29T05:19:36.562Z,20.85
2016-06-29T05:20:36.589Z,20.84
2016-06-29T05:21:37.329Z,20.8
2016-06-29T05:22:36.635Z,20.84
2016-06-29T05:23:36.039Z,20.87
2016-06-29T05:24:37.314Z,20.87
2016-06-29T05:25:37.346Z,20.84
2016-06-29T05:26:37.365Z,20.74
2016-06-29T05:27:36.130Z,20.8
2016-06-29T05:28:36.174Z,20.9
2016-06-29T05:29:36.195Z,20.8
2016-06-29T05:30:36.839Z,20.88
2016-06-29T05:31:37.485Z,20.85
2016-06-29T05:32:36.895Z,20.85
2016-06-29T05:33:37.603Z,20.85
2016-06-29T05:34:36.951Z,20.9
2016-06-29T05:35:36.959Z,20.93
2016-06-29T05:36:37.658Z,20.92
2016-06-29T05:37:36.392Z,20.93
2016-06-29T05:38:36.429Z,20.88
2016-06-29T05:39:36.455Z,20.9
2016-06-29T05:40:37.086Z,20.81
2016-06-29T05:41:37.106Z,20.93
2016-06-29T05:42:37.263Z,20.97
2016-06-29T05:43:37.270Z,20.93
2016-06-29T05:44:37.281Z,20.96
2016-06-29T05:45:36.596Z,20.93
2016-06-29T05:46:37.898Z,20.95
2016-06-29T05:47:36.639Z,20.96
2016-06-29T05:48:37.334Z,20.92
2016-06-29T05:49:38.092Z,20.97
2016-06-29T05:50:37.490Z,20.92
2016-06-29T05:51:38.122Z,20.93
2016-06-29T05:52:38.140Z,20.96
2016-06-29T05:53:37.547Z,20.87
2016-06-29T05:54:36.814Z,20.9
2016-06-29T05:55:37.566Z,20.95
2016-06-29T05:56:37.555Z,20.96
2016-06-29T05:57:36.903Z,21
2016-06-29T05:58:38.199Z,21.02
2016-06-29T05:59:38.287Z,21.06
2016-06-29T06:00:38.294Z,21.05
2016-06-29T06:01:37.706Z,21.05
2016-06-29T06:02:37.819Z,21.02
2016-06-29T06:03:37.712Z,21.09
2016-06-29T06:04:37.708Z,21.15
2016-06-29T06:05:37.946Z,21.18
2016-06-29T06:06:37.904Z,21.2
2016-06-29T06:07:37.778Z,21.21
2016-06-29T06:08:37.389Z,21.24
2016-06-29T06:09:37.885Z,21.24
2016-06-29T06:10:37.430Z,21.22
2016-06-29T06:11:37.426Z,21.3
2016-06-29T06:12:37.901Z,21.3
2016-06-29T06:13:38.542Z,21.37
2016-06-29T06:14:38.575Z,21.3
2016-06-29T06:15:37.986Z,21.37
2016-06-29T06:16:38.620Z,21.4
2016-06-29T06:17:38.641Z,21.39
2016-06-29T06:18:38.674Z,21.39
2016-06-29T06:19:37.521Z,21.35
2016-06-29T06:20:38.143Z,21.43
2016-06-29T06:21:38.746Z,21.48
2016-06-29T06:22:37.616Z,21.39
2016-06-29T06:23:38.179Z,21.45
2016-06-29T06:24:38.829Z,21.36
2016-06-29T06:25:38.291Z,21.46
2016-06-29T06:26:38.256Z,21.5
2016-06-29T06:27:38.322Z,21.46
2016-06-29T06:28:38.313Z,21.54
2016-06-29T06:29:38.446Z,21.48
2016-06-29T06:30:37.745Z,21.58
2016-06-29T06:31:38.468Z,21.54
2016-06-29T06:32:39.049Z,21.6
2016-06-29T06:33:39.058Z,21.61
2016-06-29T06:34:38.510Z,21.54
2016-06-29T06:35:38.483Z,21.64
2016-06-29T06:36:38.507Z,21.6
2016-06-29T06:37:37.933Z,21.6
2016-06-29T06:38:39.170Z,21.57
2016-06-29T06:39:38.594Z,21.5
2016-06-29T06:40:38.118Z,21.66
2016-06-29T06:41:38.648Z,21.57
2016-06-29T06:42:39.285Z,21.57
2016-06-29T06:43:38.166Z,21.54
2016-06-29T06:44:38.180Z,21.58
2016-06-29T06:45:38.738Z,21.58
2016-06-29T06:46:39.394Z,21.58
2016-06-29T06:47:38.206Z,21.6
2016-06-29T06:48:39.437Z,21.58
2016-06-29T06:49:39.458Z,21.66
2016-06-29T06:50:39.487Z,21.58
2016-06-29T06:51:38.306Z,21.64
2016-06-29T06:52:38.951Z,21.7
2016-06-29T06:53:38.956Z,21.73
2016-06-29T06:54:38.968Z,21.7
2016-06-29T06:55:39.001Z,21.7
2016-06-29T06:56:39.016Z,21.69
2016-06-29T06:57:39.666Z,21.72
2016-06-29T06:58:39.065Z,21.76
2016-06-29T06:59:38.506Z,21.72
2016-06-29T07:00:39.774Z,21.7
2016-06-29T07:01:39.189Z,21.75
2016-06-29T07:02:39.814Z,21.79
2016-06-29T07:03:39.206Z,21.75
2016-06-29T07:04:40.220Z,21.8
2016-06-29T07:05:39.251Z,21.83
2016-06-29T07:06:39.303Z,21.83
2016-06-29T07:07:39.926Z,21.82
2016-06-29T07:08:39.954Z,21.82
2016-06-29T07:09:39.381Z,21.91
2016-06-29T07:10:39.374Z,21.88
2016-06-29T07:11:38.786Z,21.98
2016-06-29T07:12:40.070Z,22.02
2016-06-29T07:13:39.480Z,22.02
2016-06-29T07:14:39.494Z,22.04
2016-06-29T07:15:38.894Z,22.02
2016-06-29T07:16:39.554Z,22.06
2016-06-29T07:17:40.203Z,22.2
2016-06-29T07:18:38.985Z,22.15
2016-06-29T07:19:39.631Z,22.28
2016-06-29T07:20:39.668Z,22.23
2016-06-29T07:21:40.388Z,22.26
2016-06-29T07:22:40.408Z,22.29
2016-06-29T07:23:39.720Z,22.36
2016-06-29T07:24:40.414Z,22.32
2016-06-29T07:25:40.418Z,22.38
2016-06-29T07:26:39.826Z,22.44
2016-06-29T07:27:39.214Z,22.44
2016-06-29T07:28:39.892Z,22.47
2016-06-29T07:29:39.315Z,22.51
2016-06-29T07:30:39.899Z,22.51
2016-06-29T07:31:39.935Z,22.5
2016-06-29T07:32:39.970Z,22.62
2016-06-29T07:33:39.535Z,22.6
2016-06-29T07:34:40.136Z,22.66
2016-06-29T07:35:39.434Z,22.72
2016-06-29T07:36:39.448Z,22.66
2016-06-29T07:37:40.753Z,22.8
2016-06-29T07:38:40.221Z,22.84
2016-06-29T07:39:40.913Z,22.88
2016-06-29T07:40:40.910Z,22.87
2016-06-29T07:41:40.297Z,22.91
2016-06-29T07:42:40.350Z,22.96
2016-06-29T07:43:39.638Z,23
2016-06-29T07:44:39.658Z,23.02
2016-06-29T07:45:40.353Z,23.06
2016-06-29T07:46:41.090Z,23.12
2016-06-29T07:47:40.496Z,23.1
2016-06-29T07:48:40.487Z,23.23
2016-06-29T07:49:39.774Z,23.23
2016-06-29T07:50:40.515Z,23.23
2016-06-29T07:51:41.139Z,23.27
2016-06-29T07:52:40.582Z,23.41
2016-06-29T07:53:40.502Z,23.36
2016-06-29T07:54:40.543Z,23.4
2016-06-29T07:55:40.561Z,23.46
2016-06-29T07:56:41.209Z,23.56
2016-06-29T07:57:39.998Z,23.56
2016-06-29T07:58:40.646Z,23.65
2016-06-29T07:59:41.292Z,23.66
2016-06-29T08:00:41.336Z,23.73
2016-06-29T08:01:40.959Z,23.74
2016-06-29T08:02:40.336Z,23.76
2016-06-29T08:03:40.966Z,23.86
2016-06-29T08:04:41.430Z,23.95
2016-06-29T08:05:40.886Z,23.95
2016-06-29T08:06:41.466Z,24.06
2016-06-29T08:07:41.503Z,24.11
2016-06-29T08:08:41.038Z,24.16
2016-06-29T08:09:40.436Z,24.26
2016-06-29T08:10:41.567Z,24.29
2016-06-29T08:11:41.619Z,24.36
2016-06-29T08:12:41.104Z,24.51
2016-06-29T08:13:41.649Z,24.39
2016-06-29T08:14:41.173Z,24.51
2016-06-29T08:15:41.169Z,24.48
2016-06-29T08:16:41.196Z,24.53
2016-06-29T08:17:41.757Z,24.58
2016-06-29T08:18:41.168Z,24.68
2016-06-29T08:19:40.591Z,24.77
2016-06-29T08:20:41.233Z,24.77
2016-06-29T08:21:41.875Z,24.78
2016-06-29T08:22:41.903Z,24.84
2016-06-29T08:23:41.928Z,24.88
2016-06-29T08:24:41.955Z,24.84
2016-06-29T08:25:41.983Z,24.98
2016-06-29T08:26:41.390Z,24.95
2016-06-29T08:27:40.802Z,25.06
2016-06-29T08:28:40.815Z,25.08
2016-06-29T08:29:42.141Z,25.1
2016-06-29T08:30:41.502Z,25.22
2016-06-29T08:31:40.908Z,25.26
2016-06-29T08:32:41.800Z,25.36
2016-06-29T08:33:41.576Z,25.46
2016-06-29T08:34:41.626Z,25.44
2016-06-29T08:35:42.269Z,25.58
2016-06-29T08:36:41.667Z,25.54
2016-06-29T08:37:41.101Z,25.66
2016-06-29T08:38:42.331Z,25.73
2016-06-29T08:39:41.747Z,25.8
2016-06-29T08:40:41.163Z,25.83
2016-06-29T08:41:41.811Z,25.95
2016-06-29T08:42:41.218Z,25.99
2016-06-29T08:43:41.850Z,26
2016-06-29T08:44:41.885Z,26.05
2016-06-29T08:45:42.534Z,25.99
2016-06-29T08:46:42.553Z,26.09
2016-06-29T08:47:41.961Z,26.18
2016-06-29T08:48:42.607Z,26.21
2016-06-29T08:49:42.041Z,26.23
2016-06-29T08:50:41.421Z,26.23
2016-06-29T08:51:42.090Z,26.37
2016-06-29T08:52:41.488Z,26.45
2016-06-29T08:53:42.796Z,26.53
2016-06-29T08:54:42.789Z,26.56
2016-06-29T08:55:41.582Z,26.56
2016-06-29T08:56:42.875Z,26.66
2016-06-29T08:57:42.882Z,26.74
2016-06-29T08:58:41.649Z,26.71
2016-06-29T08:59:42.290Z,26.8
2016-06-29T09:00:42.336Z,26.74
2016-06-29T09:01:42.352Z,26.84
2016-06-29T09:02:43.077Z,26.9
2016-06-29T09:03:42.457Z,26.88
2016-06-29T09:04:41.818Z,26.92
2016-06-29T09:05:42.478Z,26.96
2016-06-29T09:06:43.211Z,26.97
2016-06-29T09:07:43.217Z,26.99
2016-06-29T09:08:43.178Z,26.99
2016-06-29T09:09:42.584Z,27.11
2016-06-29T09:10:43.225Z,26.97
2016-06-29T09:11:43.273Z,27.02
2016-06-29T09:12:43.282Z,27.1
2016-06-29T09:13:43.320Z,27.15
2016-06-29T09:14:42.723Z,27.17
2016-06-29T09:15:43.373Z,27.21
2016-06-29T09:16:43.407Z,27.29
2016-06-29T09:17:42.805Z,27.39
2016-06-29T09:18:42.897Z,27.42
2016-06-29T09:19:43.484Z,27.45
2016-06-29T09:20:42.910Z,27.48
2016-06-29T09:21:42.955Z,27.63
2016-06-29T09:22:42.954Z,27.58
2016-06-29T09:23:43.603Z,27.65
2016-06-29T09:24:43.011Z,27.74
2016-06-29T09:25:42.414Z,27.83
2016-06-29T09:26:43.754Z,27.9
2016-06-29T09:27:43.090Z,27.93
2016-06-29T09:28:42.502Z,28.02
2016-06-29T09:29:43.161Z,28.04
2016-06-29T09:30:43.802Z,28.2
2016-06-29T09:31:43.216Z,28.26
2016-06-29T09:32:43.231Z,28.3
2016-06-29T09:33:43.893Z,28.39
2016-06-29T09:34:43.911Z,28.44
2016-06-29T09:35:43.940Z,28.49
2016-06-29T09:36:43.978Z,28.67
2016-06-29T09:37:44.018Z,28.72
2016-06-29T09:38:42.830Z,28.67
2016-06-29T09:39:43.476Z,28.78
2016-06-29T09:40:42.854Z,28.78
2016-06-29T09:41:43.509Z,28.88
2016-06-29T09:42:43.543Z,28.94
2016-06-29T09:43:43.587Z,28.93
2016-06-29T09:44:42.992Z,28.96
2016-06-29T09:45:43.628Z,29.01
2016-06-29T09:46:43.036Z,29.05
2016-06-29T09:47:43.067Z,28.98
2016-06-29T09:48:44.343Z,29.02
2016-06-29T09:49:43.739Z,29.1
2016-06-29T09:50:43.780Z,29.26
2016-06-29T09:51:44.427Z,29.29
2016-06-29T09:52:43.832Z,29.42
2016-06-29T09:53:43.255Z,29.39
2016-06-29T09:54:43.926Z,29.51
2016-06-29T09:55:43.928Z,29.57
2016-06-29T09:56:44.576Z,29.59
2016-06-29T09:57:44.610Z,29.59
2016-06-29T09:58:43.402Z,29.6
2016-06-29T09:59:44.038Z,29.63
2016-06-29T10:00:43.454Z,29.68
2016-06-29T10:01:44.723Z,29.72
2016-06-29T10:02:44.755Z,29.76
2016-06-29T10:03:44.776Z,29.79
2016-06-29T10:04:43.570Z,29.91
2016-06-29T10:05:44.219Z,29.94
2016-06-29T10:06:44.247Z,30.08
2016-06-29T10:07:44.313Z,30.12
2016-06-29T10:08:44.525Z,30.15
2016-06-29T10:09:44.970Z,30.24
2016-06-29T10:10:45.010Z,30.25
2016-06-29T10:11:44.409Z,30.28
2016-06-29T10:12:43.819Z,30.35
2016-06-29T10:13:44.489Z,30.43
2016-06-29T10:14:44.510Z,30.47
2016-06-29T10:15:43.907Z,30.51
2016-06-29T10:16:45.188Z,30.55
2016-06-29T10:17:45.207Z,30.57
2016-06-29T10:18:45.244Z,30.7
2016-06-29T10:19:44.644Z,30.73
2016-06-29T10:20:45.290Z,30.73
2016-06-29T10:21:45.333Z,30.84
2016-06-29T10:22:44.750Z,30.84
2016-06-29T10:23:44.792Z,30.94
2016-06-29T10:24:45.411Z,31.03
2016-06-29T10:25:44.840Z,31.12
2016-06-29T10:26:45.474Z,31.22
2016-06-29T10:27:45.505Z,31.28
2016-06-29T10:28:45.535Z,31.39
2016-06-29T10:29:45.576Z,31.29
2016-06-29T10:30:44.995Z,31.4
2016-06-29T10:31:45.654Z,31.42
2016-06-29T10:32:45.675Z,31.44
2016-06-29T10:33:45.077Z,31.46
2016-06-29T10:34:44.541Z,31.55
2016-06-29T10:35:45.755Z,31.52
2016-06-29T10:36:45.884Z,31.59
2016-06-29T10:37:45.231Z,31.54
2016-06-29T10:38:45.932Z,31.62
2016-06-29T10:39:45.267Z,31.65
2016-06-29T10:40:44.691Z,31.66
2016-06-29T10:41:44.710Z,31.66
2016-06-29T10:42:46.012Z,31.65
2016-06-29T10:43:46.135Z,31.71
2016-06-29T10:44:45.434Z,31.73
2016-06-29T10:45:46.147Z,31.85
2016-06-29T10:46:44.900Z,31.73
2016-06-29T10:47:46.194Z,31.85
2016-06-29T10:48:45.553Z,31.89
2016-06-29T10:49:45.590Z,31.99
2016-06-29T10:50:46.244Z,32.03
2016-06-29T10:51:46.293Z,32.12
2016-06-29T10:52:45.810Z,32.15
2016-06-29T10:53:45.806Z,32.18
2016-06-29T10:54:45.835Z,32.29
2016-06-29T10:55:46.401Z,32.34
2016-06-29T10:56:45.848Z,32.33
2016-06-29T10:57:45.864Z,32.34
2016-06-29T10:58:46.483Z,32.43
2016-06-29T10:59:45.998Z,32.43
2016-06-29T11:00:46.562Z,32.43
2016-06-29T11:01:46.056Z,32.46
2016-06-29T11:02:46.059Z,32.55
2016-06-29T11:03:46.646Z,32.55
2016-06-29T11:04:46.173Z,32.63
2016-06-29T11:05:46.119Z,32.58
2016-06-29T11:06:46.125Z,32.68
2016-06-29T11:07:46.850Z,32.71
2016-06-29T11:08:46.202Z,32.74
2016-06-29T11:09:46.227Z,32.83
2016-06-29T11:10:46.338Z,32.87
2016-06-29T11:11:46.929Z,32.95
2016-06-29T11:12:46.951Z,33.04
2016-06-29T11:13:46.475Z,33
2016-06-29T11:14:47.073Z,32.96
2016-06-29T11:15:46.440Z,33.05
2016-06-29T11:16:47.196Z,33.12
2016-06-29T11:17:46.498Z,33.24
2016-06-29T11:18:46.520Z,33.28
2016-06-29T11:19:46.570Z,33.34
2016-06-29T11:20:47.203Z,33.37
2016-06-29T11:21:46.006Z,33.37
2016-06-29T11:22:46.659Z,33.55
2016-06-29T11:23:46.081Z,33.47
2016-06-29T11:24:47.338Z,33.58
2016-06-29T11:25:46.775Z,33.64
2016-06-29T11:26:46.803Z,33.67
2016-06-29T11:27:46.214Z,33.71
2016-06-29T11:28:47.481Z,33.71
2016-06-29T11:29:46.886Z,33.77
2016-06-29T11:30:47.550Z,33.8
2016-06-29T11:31:46.962Z,33.71
2016-06-29T11:32:47.003Z,33.8
2016-06-29T11:33:47.633Z,33.84
2016-06-29T11:34:47.913Z,33.9
2016-06-29T11:35:47.110Z,33.96
2016-06-29T11:36:47.170Z,33.98
2016-06-29T11:37:47.173Z,34.11
2016-06-29T11:38:47.820Z,34.06
2016-06-29T11:39:46.640Z,34.18
2016-06-29T11:40:47.278Z,34.23
2016-06-29T11:41:47.323Z,34.23
2016-06-29T11:42:47.351Z,34.35
2016-06-29T11:43:47.985Z,34.4
2016-06-29T11:44:46.889Z,34.36
2016-06-29T11:45:48.075Z,34.39
2016-06-29T11:46:48.101Z,34.39
2016-06-29T11:47:48.115Z,34.36
2016-06-29T11:48:48.152Z,34.32
2016-06-29T11:49:48.187Z,34.47
2016-06-29T11:50:48.251Z,34.33
2016-06-29T11:51:47.059Z,34.38
2016-06-29T11:52:48.304Z,34.4
2016-06-29T11:53:47.099Z,34.38
2016-06-29T11:54:47.757Z,34.36
2016-06-29T11:55:47.787Z,34.38
2016-06-29T11:56:48.433Z,34.4
2016-06-29T11:57:47.863Z,34.4
2016-06-29T11:58:47.904Z,34.43
2016-06-29T11:59:47.302Z,34.48
2016-06-29T12:00:47.969Z,34.5
2016-06-29T12:01:48.622Z,34.54
2016-06-29T12:02:48.659Z,34.54
2016-06-29T12:03:48.053Z,34.61
2016-06-29T12:04:47.481Z,34.61
2016-06-29T12:05:48.734Z,34.67
2016-06-29T12:06:47.566Z,34.71
2016-06-29T12:07:48.201Z,34.7
2016-06-29T12:08:48.231Z,34.7
2016-06-29T12:09:48.261Z,34.85
2016-06-29T12:10:48.307Z,34.89
2016-06-29T12:11:48.956Z,34.89
2016-06-29T12:12:48.382Z,34.86
2016-06-29T12:13:48.421Z,34.99
2016-06-29T12:14:48.433Z,35.07
2016-06-29T12:15:48.473Z,35.15
2016-06-29T12:16:47.891Z,35.22
2016-06-29T12:17:47.930Z,35.14
2016-06-29T12:18:48.009Z,35.15
2016-06-29T12:19:48.607Z,35.14
2016-06-29T12:20:49.259Z,35.1
2016-06-29T12:21:49.287Z,35.11
2016-06-29T12:22:49.325Z,34.97
2016-06-29T12:23:49.048Z,34.85
2016-06-29T12:24:48.363Z,34.74
2016-06-29T12:25:49.619Z,34.75
2016-06-29T12:26:48.996Z,34.75
2016-06-29T12:27:49.022Z,34.64
2016-06-29T12:28:49.623Z,34.74
2016-06-29T12:29:49.058Z,34.73
2016-06-29T12:30:49.687Z,34.78
2016-06-29T12:31:49.070Z,34.9
2016-06-29T12:32:48.525Z,34.83
2016-06-29T12:33:48.483Z,34.97
2016-06-29T12:34:49.317Z,34.96
2016-06-29T12:35:49.770Z,35.02
2016-06-29T12:36:49.190Z,35.12
2016-06-29T12:37:49.227Z,35.22
2016-06-29T12:38:49.242Z,35.22
2016-06-29T12:39:49.296Z,35.3
2016-06-29T12:40:49.432Z,35.36
2016-06-29T12:41:49.367Z,35.44
2016-06-29T12:42:49.395Z,35.49
2016-06-29T12:43:49.429Z,35.61
2016-06-29T12:44:50.100Z,35.67
2016-06-29T12:45:49.595Z,35.71
2016-06-29T12:46:50.230Z,35.79
2016-06-29T12:47:49.765Z,35.92
2016-06-29T12:48:49.777Z,35.93
2016-06-29T12:49:49.718Z,35.97
2016-06-29T12:50:49.678Z,36.08
2016-06-29T12:51:50.333Z,36.16
2016-06-29T12:52:50.375Z,36.2
2016-06-29T12:53:49.789Z,36.31
2016-06-29T12:54:49.205Z,36.37
2016-06-29T12:55:49.965Z,36.42
2016-06-29T12:56:49.898Z,36.54